YIT Corporation Speed Test Log

Averages  Max Speed    
1 to 25 of 20198** for Host YIT Corporation
Time
  
  Size   Speed   UserConnectID 
5/18/19 6:37:01 pm FI14.2 MB 23.62 Mbps 2.95 MB/sMirekT1778433713831mMdSnJFTU 
5/18/19 6:32:05 pm FI43.9 MB 34.94 Mbps 4.37 MB/sMirekT1778433713831rKb1g-pwf 
5/18/19 6:27:03 pm FI22.8 MB 21.79 Mbps 2.72 MB/sMirekT1778433713831BGBq56YEa 
5/18/19 6:22:01 pm FI23.9 MB 27.05 Mbps 3.38 MB/sMirekT1778433713831IGoh9un0T 
5/18/19 6:16:58 pm FI15 MB 23.44 Mbps 2.93 MB/sMirekT17784337138316ZChknRk_ 
5/18/19 6:12:01 pm FI23.7 MB 21.39 Mbps 2.67 MB/sMirekT1778433713831RwsBf01zG 
5/18/19 6:06:57 pm FI23.6 MB 30.5 Mbps 3.81 MB/sMirekT1778433713831hu4QYsZti 
5/18/19 6:01:58 pm FI23.3 MB 22.47 Mbps 2.81 MB/sMirekT1778433713831mAr7YAxKM 
5/18/19 5:56:55 pm FI14.2 MB 17.53 Mbps 2.19 MB/sMirekT1778433713831wy9aFkR1e 
5/18/19 5:51:54 pm FI20.9 MB 23.53 Mbps 2.94 MB/sMirekT1778433713831HFVVo7agd 
5/18/19 5:47:04 pm FI45.1 MB 29.03 Mbps 3.63 MB/sMirekT1778433713831jxVDD1NxY 
5/18/19 5:41:52 pm FI23.6 MB 30.44 Mbps 3.8 MB/sMirekT1778433713831szFL~nsg~ 
5/18/19 5:36:50 pm FI21.8 MB 30.33 Mbps 3.79 MB/sMirekT1778433713831PboYJi7Td 
5/18/19 5:31:51 pm FI14.1 MB 16.33 Mbps 2.04 MB/sMirekT1778433713831OiIuh_seY 
5/18/19 5:26:49 pm FI24.4 MB 30.38 Mbps 3.8 MB/sMirekT1778433713831yALMPJ~Hr 
5/18/19 5:21:52 pm FI22.9 MB 27.26 Mbps 3.41 MB/sMirekT1778433713831UONv8R~jV 
5/18/19 5:16:47 pm FI13.8 MB 15.32 Mbps 1.91 MB/sMirekT1778433713831IPfOy5gQU 
5/18/19 5:11:46 pm FI24.3 MB 27.01 Mbps 3.38 MB/sMirekT1778433713831fD-tndOSb 
5/18/19 5:06:43 pm FI21.2 MB 30.78 Mbps 3.85 MB/sMirekT1778433713831AKpgZ44fy 
5/18/19 5:01:42 pm FI14.7 MB 22.42 Mbps 2.8 MB/sMirekT1778433713831qEBmN0npH 
5/18/19 4:56:41 pm FI14.1 MB 21.61 Mbps 2.7 MB/sMirekT1778433713831uBtFSu1Gl 
5/18/19 4:51:42 pm FI24.8 MB 26.69 Mbps 3.34 MB/sMirekT17784337138316bMwV7ocn 
5/18/19 4:46:40 pm FI15.5 MB 22.96 Mbps 2.87 MB/sMirekT1778433713831tLE~K4oRo 
5/18/19 4:41:54 pm FI48 MB 19.5 Mbps 2.44 MB/sMirekT17784337138311jeHkvvp5 
5/18/19 4:36:45 pm FI13.2 MB 8.38 Mbps 1.05 MB/sMirekT1778433713831_jcvA8fiC 
  
** Partial Results: The most recent results have been displayed. Results over 50 Mbps are highlighted.
Calculated from graphed results above not entire query.
Displaying Internet Speed Test results for Host YIT Corporation

Minimum

Min 8.38 Mbps

Average

Avg 24.19 Mbps

Maximum

Max 34.94 Mbps

Minimum

Min: 8.38 Mbps |

Average

Avg: 24.19 Mbps |

Maximum

Max: 34.94 Mbps